createdAt,value
2023-04-17T00:00:22.143Z,102304.84
2023-04-17T00:02:48.662Z,102302.66
2023-04-17T00:05:16.880Z,102307.75
2023-04-17T00:07:43.710Z,102298.63
2023-04-17T00:10:11.607Z,102296.00
2023-04-17T00:12:38.444Z,102304.34
2023-04-17T00:15:05.633Z,102300.00
2023-04-17T00:17:32.178Z,102301.00
2023-04-17T00:19:58.710Z,102298.47
2023-04-17T00:22:25.331Z,102305.50
2023-04-17T00:24:51.777Z,102297.88
2023-04-17T00:27:18.256Z,102300.19
2023-04-17T00:29:44.686Z,102292.25
2023-04-17T00:32:11.348Z,102294.69
2023-04-17T00:34:38.137Z,102292.03
2023-04-17T00:37:04.610Z,102294.13
2023-04-17T00:39:31.293Z,102292.63
2023-04-17T00:41:58.546Z,102288.34
2023-04-17T00:44:25.142Z,102296.63
2023-04-17T00:46:51.651Z,102288.66
2023-04-17T00:49:18.295Z,102291.88
2023-04-17T00:51:44.787Z,102288.56
2023-04-17T00:54:11.476Z,102287.69
2023-04-17T00:56:38.262Z,102289.84
2023-04-17T00:59:06.495Z,102298.94
2023-04-17T01:01:32.976Z,102299.50
2023-04-17T01:04:01.825Z,102299.00
2023-04-17T01:06:28.645Z,102295.47
2023-04-17T01:09:01.441Z,102297.59
2023-04-17T01:11:28.344Z,102305.72
2023-04-17T01:13:54.915Z,102302.31
2023-04-17T01:16:21.481Z,102302.03
2023-04-17T01:18:51.340Z,102310.84
2023-04-17T01:21:17.977Z,102308.41
2023-04-17T01:23:52.789Z,102301.72
2023-04-17T01:26:21.378Z,102306.50
2023-04-17T01:29:06.965Z,102303.84
2023-04-17T01:31:33.536Z,102304.72
2023-04-17T01:34:00.583Z,102308.22
2023-04-17T01:36:27.673Z,102310.06
2023-04-17T01:38:54.140Z,102309.03
2023-04-17T01:41:20.601Z,102300.84
2023-04-17T01:43:47.659Z,102307.81
2023-04-17T01:46:14.356Z,102310.81
2023-04-17T01:48:40.986Z,102302.00
2023-04-17T01:51:07.544Z,102292.31
2023-04-17T01:53:34.339Z,102302.94
2023-04-17T01:56:01.876Z,102306.44
2023-04-17T01:58:28.624Z,102304.69
2023-04-17T02:00:55.104Z,102308.53
2023-04-17T02:03:22.909Z,102308.78
2023-04-17T02:05:49.910Z,102307.53
2023-04-17T02:08:16.747Z,102308.91
2023-04-17T02:10:43.501Z,102312.97
2023-04-17T02:13:10.769Z,102313.84
2023-04-17T02:15:37.548Z,102306.75
2023-04-17T02:18:06.266Z,102311.81
2023-04-17T02:20:33.598Z,102314.50
2023-04-17T02:23:00.981Z,102314.81
2023-04-17T02:25:27.963Z,102309.16
2023-04-17T02:27:54.895Z,102307.44
2023-04-17T02:30:21.548Z,102307.63
2023-04-17T02:32:49.856Z,102306.13
2023-04-17T02:35:16.355Z,102314.09
2023-04-17T02:37:42.849Z,102321.66
2023-04-17T02:40:10.387Z,102317.16
2023-04-17T02:42:36.910Z,102315.63
2023-04-17T02:45:04.537Z,102312.91
2023-04-17T02:47:31.101Z,102316.53
2023-04-17T02:50:00.110Z,102322.09
2023-04-17T02:52:31.080Z,102326.16
2023-04-17T02:54:57.601Z,102323.22
2023-04-17T02:57:24.536Z,102328.28
2023-04-17T02:59:51.722Z,102325.91
2023-04-17T03:02:22.211Z,102330.03
2023-04-17T03:04:50.352Z,102331.72
2023-04-17T03:07:18.797Z,102329.94
2023-04-17T03:09:48.612Z,102326.22
2023-04-17T03:12:15.905Z,102330.59
2023-04-17T03:14:43.428Z,102333.06
2023-04-17T03:17:10.944Z,102333.44
2023-04-17T03:19:37.855Z,102334.72
2023-04-17T03:22:04.582Z,102342.72
2023-04-17T03:24:31.573Z,102340.06
2023-04-17T03:26:58.687Z,102334.16
2023-04-17T03:29:25.316Z,102341.69
2023-04-17T03:31:51.881Z,102341.41
2023-04-17T03:34:18.795Z,102338.97
2023-04-17T03:36:45.340Z,102341.16
2023-04-17T03:39:12.132Z,102342.19
2023-04-17T03:41:38.899Z,102345.53
2023-04-17T03:44:05.803Z,102341.75
2023-04-17T03:46:32.290Z,102336.56
2023-04-17T03:51:40.077Z,102340.00
2023-04-17T03:54:06.584Z,102338.53
2023-04-17T03:56:33.100Z,102340.19
2023-04-17T03:58:59.790Z,102335.97
2023-04-17T04:01:28.425Z,102338.81
2023-04-17T04:03:55.547Z,102334.78
2023-04-17T04:06:22.475Z,102348.38
2023-04-17T04:08:49.540Z,102341.38
2023-04-17T04:11:16.298Z,102345.63
2023-04-17T04:13:42.746Z,102353.97
2023-04-17T04:16:09.338Z,102352.00
2023-04-17T04:18:36.975Z,102348.81
2023-04-17T04:21:03.684Z,102354.00
2023-04-17T04:23:30.618Z,102353.72
2023-04-17T04:25:58.021Z,102353.59
2023-04-17T04:28:24.593Z,102353.22
2023-04-17T04:30:53.596Z,102350.38
2023-04-17T04:33:20.920Z,102351.47
2023-04-17T04:35:48.361Z,102358.94
2023-04-17T04:38:15.541Z,102361.19
2023-04-17T04:40:43.807Z,102361.06
2023-04-17T04:43:10.544Z,102362.03
2023-04-17T04:45:37.170Z,102364.75
2023-04-17T04:48:03.806Z,102370.03
2023-04-17T04:50:30.948Z,102360.25
2023-04-17T04:52:57.440Z,102367.19
2023-04-17T04:55:24.554Z,102374.13
2023-04-17T04:57:53.449Z,102373.50
2023-04-17T05:00:20.497Z,102382.88
2023-04-17T05:02:47.197Z,102385.19
2023-04-17T05:05:13.736Z,102381.31
2023-04-17T05:07:40.351Z,102381.88
2023-04-17T05:10:07.370Z,102383.59
2023-04-17T05:12:35.146Z,102391.31
2023-04-17T05:15:01.653Z,102389.94
2023-04-17T05:17:28.152Z,102400.00
2023-04-17T05:19:54.646Z,102401.66
2023-04-17T05:22:21.671Z,102405.19
2023-04-17T05:24:48.193Z,102407.50
2023-04-17T05:27:14.631Z,102405.16
2023-04-17T05:29:41.106Z,102409.13
2023-04-17T05:32:07.768Z,102411.13
2023-04-17T05:34:34.408Z,102408.16
2023-04-17T05:37:00.844Z,102419.16
2023-04-17T05:39:28.383Z,102414.16
2023-04-17T05:41:54.820Z,102423.72
2023-04-17T05:44:21.291Z,102412.41
2023-04-17T05:46:48.019Z,102412.97
2023-04-17T05:49:14.539Z,102417.91
2023-04-17T05:51:41.001Z,102420.78
2023-04-17T05:54:07.497Z,102416.66
2023-04-17T05:56:34.115Z,102420.22
2023-04-17T05:59:00.887Z,102415.97
2023-04-17T06:01:29.983Z,102420.47
2023-04-17T06:03:57.171Z,102419.03
2023-04-17T06:06:23.871Z,102415.88
2023-04-17T06:08:52.451Z,102421.03
2023-04-17T06:11:18.959Z,102419.66
2023-04-17T06:13:45.453Z,102425.31
2023-04-17T06:16:11.929Z,102431.03
2023-04-17T06:18:38.681Z,102426.41
2023-04-17T06:21:05.179Z,102426.19
2023-04-17T06:23:31.675Z,102422.38
2023-04-17T06:25:59.277Z,102427.16
2023-04-17T06:28:25.762Z,102436.88
2023-04-17T06:30:52.310Z,102429.41
2023-04-17T06:33:18.796Z,102431.44
2023-04-17T06:35:45.218Z,102437.56
2023-04-17T06:38:11.717Z,102439.00
2023-04-17T06:40:38.569Z,102439.22
2023-04-17T06:43:05.112Z,102438.00
2023-04-17T06:45:33.381Z,102438.91
2023-04-17T06:47:59.881Z,102440.38
2023-04-17T06:50:26.488Z,102437.03
2023-04-17T06:52:52.986Z,102436.47
2023-04-17T06:55:19.432Z,102441.81
2023-04-17T06:57:46.182Z,102445.84
2023-04-17T07:00:13.311Z,102448.63
2023-04-17T07:02:39.807Z,102445.44
2023-04-17T07:05:07.205Z,102446.88
2023-04-17T07:07:35.583Z,102447.13
2023-04-17T07:10:03.739Z,102455.66
2023-04-17T07:12:30.461Z,102459.94
2023-04-17T07:14:57.005Z,102462.63
2023-04-17T07:17:23.619Z,102460.31
2023-04-17T07:19:50.150Z,102466.91
2023-04-17T07:22:16.634Z,102470.47
2023-04-17T07:24:43.111Z,102464.72
2023-04-17T07:27:09.907Z,102470.22
2023-04-17T07:29:36.519Z,102472.84
2023-04-17T07:32:03.948Z,102479.59
2023-04-17T07:34:31.799Z,102469.94
2023-04-17T07:36:58.245Z,102471.19
2023-04-17T07:39:26.919Z,102479.88
2023-04-17T07:41:53.378Z,102480.03
2023-04-17T07:44:19.896Z,102473.72
2023-04-17T07:46:46.431Z,102474.75
2023-04-17T07:49:13.253Z,102485.13
2023-04-17T07:51:41.256Z,102480.22
2023-04-17T07:54:08.039Z,102491.31
2023-04-17T07:56:35.029Z,102485.50
2023-04-17T07:59:02.525Z,102485.47
2023-04-17T08:01:28.978Z,102482.34
2023-04-17T08:03:55.798Z,102491.25
2023-04-17T08:06:22.427Z,102488.00
2023-04-17T08:08:48.955Z,102496.88
2023-04-17T08:11:15.545Z,102488.16
2023-04-17T08:13:42.202Z,102490.53
2023-04-17T08:16:09.104Z,102488.44
2023-04-17T08:18:37.693Z,102496.81
2023-04-17T08:21:04.554Z,102502.78
2023-04-17T08:23:31.401Z,102497.59
2023-04-17T08:25:58.373Z,102494.91
2023-04-17T08:28:25.170Z,102491.59
2023-04-17T08:30:51.884Z,102494.78
2023-04-17T08:33:18.757Z,102502.16
2023-04-17T08:35:45.428Z,102500.28
2023-04-17T08:38:14.169Z,102503.69
2023-04-17T08:40:43.097Z,102495.25
2023-04-17T08:43:15.156Z,102505.47
2023-04-17T08:45:54.061Z,102498.41
2023-04-17T08:48:21.863Z,102502.44
2023-04-17T08:50:51.409Z,102507.75
2023-04-17T08:53:19.025Z,102500.03
2023-04-17T08:55:46.827Z,102507.53
2023-04-17T08:58:14.590Z,102506.94
2023-04-17T09:00:42.620Z,102506.00
2023-04-17T09:03:13.931Z,102507.53
2023-04-17T09:05:43.569Z,102506.34
2023-04-17T09:08:17.511Z,102507.06
2023-04-17T09:10:46.034Z,102506.94
2023-04-17T09:13:18.101Z,102509.75
2023-04-17T09:15:45.900Z,102513.00
2023-04-17T09:18:31.009Z,102503.06
2023-04-17T09:20:59.776Z,102515.63
2023-04-17T09:23:30.751Z,102510.13
2023-04-17T09:26:09.397Z,102513.38
2023-04-17T09:28:36.852Z,102520.50
2023-04-17T09:31:24.294Z,102515.63
2023-04-17T09:33:58.962Z,102511.75
2023-04-17T09:36:27.453Z,102518.72
2023-04-17T09:38:54.450Z,102517.75
2023-04-17T09:41:25.363Z,102526.28
2023-04-17T09:43:55.008Z,102518.19
2023-04-17T09:46:46.025Z,102520.03
2023-04-17T09:49:15.769Z,102517.13
2023-04-17T09:51:42.730Z,102512.00
2023-04-17T09:54:11.628Z,102510.69
2023-04-17T09:56:38.900Z,102519.91
2023-04-17T09:59:06.210Z,102513.19
2023-04-17T10:01:33.947Z,102525.38
2023-04-17T10:04:01.748Z,102528.19
2023-04-17T10:06:29.108Z,102520.41
2023-04-17T10:08:56.026Z,102517.91
2023-04-17T10:11:24.830Z,102519.16
2023-04-17T10:14:13.567Z,102539.19
2023-04-17T10:16:43.609Z,102530.19
2023-04-17T10:19:30.921Z,102527.94
2023-04-17T10:22:15.758Z,102524.94
2023-04-17T10:24:43.177Z,102527.97
2023-04-17T10:27:25.630Z,102528.47
2023-04-17T10:29:56.527Z,102526.56
2023-04-17T10:32:28.958Z,102534.47
2023-04-17T10:35:04.943Z,102528.59
2023-04-17T10:37:46.959Z,102532.00
2023-04-17T10:40:20.787Z,102528.13
2023-04-17T10:43:06.593Z,102526.66
2023-04-17T10:45:51.708Z,102534.59
2023-04-17T10:48:36.727Z,102534.03
2023-04-17T10:51:21.940Z,102536.22
2023-04-17T10:53:50.411Z,102537.03
2023-04-17T10:56:46.300Z,102532.19
2023-04-17T10:59:20.732Z,102538.66
2023-04-17T11:01:50.881Z,102552.91
2023-04-17T11:04:25.389Z,102554.34
2023-04-17T11:06:55.759Z,102543.78
2023-04-17T11:09:24.035Z,102537.09
2023-04-17T11:11:50.990Z,102540.38
2023-04-17T11:14:22.808Z,102550.28
2023-04-17T11:16:51.148Z,102548.81
2023-04-17T11:19:23.273Z,102552.78
2023-04-17T11:21:52.338Z,102549.97
2023-04-17T11:24:32.104Z,102555.88
2023-04-17T11:27:00.752Z,102556.47
2023-04-17T11:29:28.115Z,102553.00
2023-04-17T11:31:56.413Z,102564.25
2023-04-17T11:34:23.247Z,102569.47
2023-04-17T11:36:58.096Z,102567.41
2023-04-17T11:39:26.764Z,102568.06
2023-04-17T11:41:53.433Z,102565.34
2023-04-17T11:44:21.152Z,102560.44
2023-04-17T11:46:54.439Z,102567.41
2023-04-17T11:49:31.502Z,102580.44
2023-04-17T11:52:01.980Z,102570.75
2023-04-17T11:54:40.153Z,102567.91
2023-04-17T11:57:13.975Z,102568.06
2023-04-17T11:59:45.583Z,102569.63
2023-04-17T12:02:12.501Z,102578.25
2023-04-17T12:04:39.967Z,102577.91
2023-04-17T12:07:07.695Z,102577.78
2023-04-17T12:09:34.948Z,102581.09
2023-04-17T12:12:04.609Z,102580.78
2023-04-17T12:14:31.596Z,102587.53
2023-04-17T12:16:59.267Z,102585.78
2023-04-17T12:19:28.037Z,102596.50
2023-04-17T12:21:55.152Z,102588.00
2023-04-17T12:24:24.881Z,102586.13
2023-04-17T12:26:52.459Z,102589.63
2023-04-17T12:29:26.479Z,102584.91
2023-04-17T12:32:03.192Z,102585.53
2023-04-17T12:34:29.787Z,102585.84
2023-04-17T12:36:56.247Z,102591.91
2023-04-17T12:39:23.031Z,102587.41
2023-04-17T12:41:49.524Z,102592.06
2023-04-17T12:44:15.989Z,102590.19
2023-04-17T12:46:42.499Z,102592.72
2023-04-17T12:49:09.058Z,102597.84
2023-04-17T12:51:37.975Z,102584.94
2023-04-17T12:54:04.736Z,102601.53
2023-04-17T12:56:31.207Z,102587.66
2023-04-17T12:58:57.993Z,102602.53
2023-04-17T13:01:25.961Z,102588.75
2023-04-17T13:03:52.830Z,102598.91
2023-04-17T13:06:21.561Z,102598.84
2023-04-17T13:08:48.093Z,102601.00
2023-04-17T13:11:14.535Z,102609.72
2023-04-17T13:13:41.004Z,102596.56
2023-04-17T13:16:07.630Z,102598.50
2023-04-17T13:18:34.205Z,102604.28
2023-04-17T13:21:00.690Z,102601.84
2023-04-17T13:23:27.185Z,102602.03
2023-04-17T13:25:53.931Z,102598.63
2023-04-17T13:28:20.417Z,102596.75
2023-04-17T13:30:46.922Z,102600.97
2023-04-17T13:33:13.373Z,102606.22
2023-04-17T13:35:39.883Z,102603.88
2023-04-17T13:38:06.573Z,102609.63
2023-04-17T13:40:33.177Z,102608.72
2023-04-17T13:43:00.488Z,102604.22
2023-04-17T13:45:27.142Z,102596.94
2023-04-17T13:47:53.647Z,102597.97
2023-04-17T13:50:20.266Z,102600.56
2023-04-17T13:52:46.741Z,102595.91
2023-04-17T13:55:14.756Z,102588.91
2023-04-17T13:57:41.367Z,102595.25
2023-04-17T14:00:08.423Z,102584.03
2023-04-17T14:02:35.066Z,102595.38
2023-04-17T14:05:02.055Z,102580.13
2023-04-17T14:07:30.003Z,102582.00
2023-04-17T14:09:56.554Z,102585.69
2023-04-17T14:12:23.555Z,102585.78
2023-04-17T14:14:50.307Z,102587.94
2023-04-17T14:17:16.832Z,102584.72
2023-04-17T14:19:43.296Z,102585.00
2023-04-17T14:22:09.849Z,102591.41
2023-04-17T14:24:36.312Z,102588.81
2023-04-17T14:27:03.058Z,102588.03
2023-04-17T14:29:29.600Z,102600.03
2023-04-17T14:31:56.178Z,102580.91
2023-04-17T14:34:22.729Z,102593.75
2023-04-17T14:36:49.196Z,102602.06
2023-04-17T14:39:15.735Z,102605.16
2023-04-17T14:41:42.373Z,102596.50
2023-04-17T14:44:08.962Z,102602.03
2023-04-17T14:46:35.747Z,102602.03
2023-04-17T14:49:02.395Z,102597.03
2023-04-17T14:51:30.691Z,102594.97
2023-04-17T14:53:57.576Z,102600.69
2023-04-17T14:56:24.391Z,102598.31
2023-04-17T14:58:51.178Z,102591.06
2023-04-17T15:01:17.801Z,102590.00
2023-04-17T15:03:47.737Z,102594.97
2023-04-17T15:06:15.248Z,102591.88
2023-04-17T15:08:41.814Z,102610.34
2023-04-17T15:11:08.764Z,102600.25
2023-04-17T15:13:35.904Z,102594.72
2023-04-17T15:16:02.715Z,102601.00
2023-04-17T15:18:29.258Z,102596.66
2023-04-17T15:20:56.083Z,102611.00
2023-04-17T15:23:22.864Z,102599.25
2023-04-17T15:25:49.417Z,102611.34
2023-04-17T15:28:16.086Z,102612.63
2023-04-17T15:30:42.750Z,102598.91
2023-04-17T15:33:10.412Z,102611.22
2023-04-17T15:35:37.508Z,102619.84
2023-04-17T15:38:05.426Z,102614.41
2023-04-17T15:40:31.934Z,102622.75
2023-04-17T15:42:58.490Z,102625.44
2023-04-17T15:45:26.246Z,102619.00
2023-04-17T15:47:53.653Z,102619.78
2023-04-17T15:50:21.396Z,102636.22
2023-04-17T15:52:48.214Z,102636.19
2023-04-17T15:55:15.386Z,102627.91
2023-04-17T15:57:43.136Z,102624.63
2023-04-17T16:00:10.433Z,102630.66
2023-04-17T16:02:37.348Z,102633.16
2023-04-17T16:05:04.355Z,102643.78
2023-04-17T16:07:31.940Z,102629.88
2023-04-17T16:09:58.604Z,102636.97
2023-04-17T16:12:25.115Z,102632.59
2023-04-17T16:14:51.585Z,102629.34
2023-04-17T16:17:18.185Z,102638.47
2023-04-17T16:19:44.708Z,102637.81
2023-04-17T16:22:11.201Z,102639.00
2023-04-17T16:24:37.705Z,102635.84
2023-04-17T16:27:04.516Z,102628.94
2023-04-17T16:29:30.975Z,102637.38
2023-04-17T16:31:57.707Z,102634.38
2023-04-17T16:34:24.320Z,102624.00
2023-04-17T16:36:50.856Z,102630.19
2023-04-17T16:39:17.341Z,102637.06
2023-04-17T16:41:43.843Z,102634.69
2023-04-17T16:44:10.848Z,102634.47
2023-04-17T16:46:52.165Z,102634.34
2023-04-17T16:49:24.118Z,102636.78
2023-04-17T16:51:50.597Z,102636.19
2023-04-17T16:54:18.763Z,102636.94
2023-04-17T16:56:46.968Z,102640.44
2023-04-17T16:59:13.644Z,102636.41
2023-04-17T17:01:40.351Z,102640.91
2023-04-17T17:04:06.980Z,102652.25
2023-04-17T17:06:33.493Z,102642.56
2023-04-17T17:09:00.589Z,102649.00
2023-04-17T17:11:27.081Z,102639.47
2023-04-17T17:13:53.529Z,102644.78
2023-04-17T17:16:21.003Z,102652.16
2023-04-17T17:18:48.411Z,102659.47
2023-04-17T17:21:15.300Z,102665.50
2023-04-17T17:23:41.920Z,102662.50
2023-04-17T17:26:09.315Z,102666.16
2023-04-17T17:28:35.942Z,102655.25
2023-04-17T17:31:04.491Z,102671.53
2023-04-17T17:33:32.238Z,102663.31
2023-04-17T17:35:59.010Z,102671.72
2023-04-17T17:38:28.567Z,102677.09
2023-04-17T17:40:56.194Z,102679.75
2023-04-17T17:43:23.029Z,102688.28
2023-04-17T17:45:49.835Z,102679.38
2023-04-17T17:48:18.061Z,102684.72
2023-04-17T17:50:44.666Z,102694.31
2023-04-17T17:53:11.442Z,102703.06
2023-04-17T17:55:38.141Z,102693.91
2023-04-17T17:58:09.056Z,102694.22
2023-04-17T18:00:35.856Z,102701.97
2023-04-17T18:03:02.516Z,102698.03
2023-04-17T18:05:29.161Z,102707.13
2023-04-17T18:07:55.822Z,102700.66
2023-04-17T18:10:22.309Z,102706.28
2023-04-17T18:12:49.757Z,102709.91
2023-04-17T18:15:16.461Z,102709.75
2023-04-17T18:17:42.989Z,102703.50
2023-04-17T18:20:10.089Z,102707.34
2023-04-17T18:22:38.321Z,102709.75
2023-04-17T18:25:06.868Z,102713.97
2023-04-17T18:27:36.235Z,102711.97
2023-04-17T18:30:07.283Z,102716.63
2023-04-17T18:32:34.504Z,102713.00
2023-04-17T18:35:01.972Z,102722.81
2023-04-17T18:37:28.915Z,102725.47
2023-04-17T18:39:55.674Z,102723.47
2023-04-17T18:42:22.976Z,102726.50
2023-04-17T18:44:49.968Z,102738.34
2023-04-17T18:47:16.762Z,102739.59
2023-04-17T18:49:43.246Z,102739.22
2023-04-17T18:52:09.791Z,102740.72
2023-04-17T18:54:36.248Z,102745.56
2023-04-17T18:57:02.858Z,102746.75
2023-04-17T18:59:30.186Z,102741.97
2023-04-17T19:01:56.748Z,102748.16
2023-04-17T19:04:23.281Z,102745.28
2023-04-17T19:06:49.746Z,102759.22
2023-04-17T19:09:16.192Z,102753.00
2023-04-17T19:11:42.825Z,102758.63
2023-04-17T19:14:09.278Z,102754.91
2023-04-17T19:16:35.876Z,102755.72
2023-04-17T19:19:02.350Z,102754.13
2023-04-17T19:21:31.154Z,102761.41
2023-04-17T19:23:57.608Z,102750.44
2023-04-17T19:26:24.114Z,102762.59
2023-04-17T19:28:50.740Z,102763.81
2023-04-17T19:31:17.220Z,102759.50
2023-04-17T19:33:43.746Z,102768.38
2023-04-17T19:36:10.388Z,102767.47
2023-04-17T19:38:36.828Z,102756.53
2023-04-17T19:41:17.892Z,102759.16
2023-04-17T19:43:49.818Z,102763.00
2023-04-17T19:46:16.828Z,102763.72
2023-04-17T19:48:45.399Z,102761.31
2023-04-17T19:51:12.922Z,102766.75
2023-04-17T19:53:41.498Z,102762.38
2023-04-17T19:56:09.362Z,102754.31
2023-04-17T19:58:37.431Z,102754.22
2023-04-17T20:01:04.388Z,102762.69
2023-04-17T20:03:32.362Z,102752.09
2023-04-17T20:05:59.673Z,102759.50
2023-04-17T20:08:26.293Z,102755.28
2023-04-17T20:10:52.834Z,102761.97
2023-04-17T20:13:19.284Z,102770.72
2023-04-17T20:15:45.843Z,102762.78
2023-04-17T20:18:12.438Z,102769.59
2023-04-17T20:20:39.209Z,102773.41
2023-04-17T20:23:05.804Z,102782.66
2023-04-17T20:25:32.279Z,102777.44
2023-04-17T20:27:58.747Z,102780.78
2023-04-17T20:30:25.547Z,102782.59
2023-04-17T20:32:52.163Z,102780.44
2023-04-17T20:35:23.650Z,102776.72
2023-04-17T20:37:51.712Z,102778.38
2023-04-17T20:40:18.777Z,102779.13
2023-04-17T20:42:46.403Z,102775.03
2023-04-17T20:45:13.076Z,102782.50
2023-04-17T20:47:49.340Z,102778.66
2023-04-17T20:50:22.484Z,102783.75
2023-04-17T20:52:49.100Z,102783.41
2023-04-17T20:55:18.294Z,102784.63
2023-04-17T20:57:45.019Z,102779.75
2023-04-17T21:00:12.194Z,102792.94
2023-04-17T21:02:38.908Z,102783.50
2023-04-17T21:05:06.827Z,102789.06
2023-04-17T21:07:33.268Z,102788.78
2023-04-17T21:09:59.735Z,102781.41
2023-04-17T21:12:26.155Z,102784.38
2023-04-17T21:14:52.645Z,102792.06
2023-04-17T21:17:19.889Z,102782.97
2023-04-17T21:19:47.619Z,102789.09
2023-04-17T21:22:14.080Z,102792.94
2023-04-17T21:24:40.649Z,102797.44
2023-04-17T21:27:07.163Z,102792.44
2023-04-17T21:29:33.651Z,102797.00
2023-04-17T21:32:00.406Z,102800.28
2023-04-17T21:34:26.954Z,102794.44
2023-04-17T21:36:54.036Z,102797.97
2023-04-17T21:39:21.080Z,102800.75
2023-04-17T21:41:47.585Z,102807.03
2023-04-17T21:44:15.174Z,102801.94
2023-04-17T21:46:44.414Z,102805.13
2023-04-17T21:49:11.166Z,102795.09
2023-04-17T21:51:37.682Z,102806.63
2023-04-17T21:54:04.930Z,102808.03
2023-04-17T21:56:31.693Z,102810.81
2023-04-17T21:58:58.256Z,102810.44
2023-04-17T22:01:24.964Z,102812.19
2023-04-17T22:03:51.465Z,102810.66
2023-04-17T22:06:18.132Z,102817.25
2023-04-17T22:08:44.658Z,102820.41
2023-04-17T22:11:11.122Z,102822.50
2023-04-17T22:13:37.583Z,102825.06
2023-04-17T22:16:04.237Z,102828.56
2023-04-17T22:18:30.695Z,102823.19
2023-04-17T22:20:57.235Z,102816.13
2023-04-17T22:23:23.735Z,102825.97
2023-04-17T22:25:50.452Z,102826.53
2023-04-17T22:28:17.115Z,102819.56
2023-04-17T22:30:43.632Z,102808.41
2023-04-17T22:33:10.128Z,102820.97
2023-04-17T22:35:36.751Z,102816.69
2023-04-17T22:38:03.191Z,102815.56
2023-04-17T22:40:30.179Z,102813.75
2023-04-17T22:42:56.740Z,102817.00
2023-04-17T22:45:23.215Z,102812.13
2023-04-17T22:47:49.710Z,102814.81
2023-04-17T22:50:17.731Z,102812.75
2023-04-17T22:52:44.276Z,102808.66
2023-04-17T22:55:11.324Z,102813.38
2023-04-17T22:57:37.763Z,102812.97
2023-04-17T23:00:05.165Z,102818.31
2023-04-17T23:02:32.251Z,102814.84
2023-04-17T23:04:59.514Z,102810.09
2023-04-17T23:07:26.236Z,102815.88
2023-04-17T23:09:52.740Z,102805.34
2023-04-17T23:12:19.770Z,102819.22
2023-04-17T23:14:48.517Z,102820.09
2023-04-17T23:17:15.166Z,102825.72
2023-04-17T23:19:41.655Z,102818.88
2023-04-17T23:22:09.428Z,102821.19
2023-04-17T23:24:36.090Z,102829.22
2023-04-17T23:27:03.001Z,102823.13
2023-04-17T23:29:30.180Z,102824.31
2023-04-17T23:31:56.951Z,102825.16
2023-04-17T23:34:23.397Z,102820.22
2023-04-17T23:36:49.887Z,102813.53
2023-04-17T23:39:16.632Z,102813.97
2023-04-17T23:41:43.215Z,102817.63
2023-04-17T23:44:10.152Z,102818.28
2023-04-17T23:46:37.031Z,102815.50
2023-04-17T23:49:03.809Z,102824.13
2023-04-17T23:51:30.450Z,102818.78
2023-04-17T23:53:58.982Z,102820.00
2023-04-17T23:56:26.040Z,102815.72
2023-04-17T23:58:52.624Z,102821.56
